Aviation Digital Data Service (ADDS)

Output produced by METARs form (1832 UTC 23 October 2014)
found at http://aviationweather.gov/adds/metars/
 
KPVD 231722Z 2318/2418 01014G25KT P6SM OVC012 
     TEMPO 2318/2321 5SM -SHRA OVC008 
     FM232200 36011G32KT P6SM OVC015 
     FM240600 36013G28KT P6SM OVC010 
     FM241300 33010G20KT P6SM OVC025